createdAt,value
2017-03-28T00:00:42.920Z,1007.98
2017-03-28T00:01:42.956Z,1008
2017-03-28T00:02:42.991Z,1008
2017-03-28T00:03:43.027Z,1007.97
2017-03-28T00:04:43.062Z,1007.99
2017-03-28T00:05:43.097Z,1008
2017-03-28T00:06:43.132Z,1008.02
2017-03-28T00:07:43.169Z,1007.99
2017-03-28T00:08:43.204Z,1008.01
2017-03-28T00:09:43.240Z,1008
2017-03-28T00:10:43.274Z,1007.99
2017-03-28T00:11:43.310Z,1007.95
2017-03-28T00:12:43.346Z,1007.91
2017-03-28T00:13:43.380Z,1007.9
2017-03-28T00:14:43.416Z,1007.86
2017-03-28T00:15:43.452Z,1007.9
2017-03-28T00:16:43.486Z,1007.89
2017-03-28T00:17:43.521Z,1007.86
2017-03-28T00:18:43.556Z,1007.86
2017-03-28T00:19:43.593Z,1007.84
2017-03-28T00:20:43.627Z,1007.87
2017-03-28T00:21:43.663Z,1007.83
2017-03-28T00:22:43.697Z,1007.81
2017-03-28T00:23:43.733Z,1007.83
2017-03-28T00:24:43.768Z,1007.81
2017-03-28T00:25:43.805Z,1007.83
2017-03-28T00:26:43.840Z,1007.81
2017-03-28T00:27:43.875Z,1007.82
2017-03-28T00:28:43.909Z,1007.83
2017-03-28T00:29:43.945Z,1007.81
2017-03-28T00:30:43.980Z,1007.84
2017-03-28T00:31:44.016Z,1007.85
2017-03-28T00:32:44.050Z,1007.85
2017-03-28T00:33:44.086Z,1007.79
2017-03-28T00:34:44.122Z,1007.83
2017-03-28T00:35:44.155Z,1007.82
2017-03-28T00:36:44.192Z,1007.83
2017-03-28T00:37:44.227Z,1007.84
2017-03-28T00:38:44.262Z,1007.82
2017-03-28T00:39:44.297Z,1007.82
2017-03-28T00:40:44.331Z,1007.82
2017-03-28T00:41:44.367Z,1007.81
2017-03-28T00:42:44.406Z,1007.82
2017-03-28T00:43:44.437Z,1007.8
2017-03-28T00:44:44.477Z,1007.8
2017-03-28T00:45:44.508Z,1007.75
2017-03-28T00:46:44.542Z,1007.76
2017-03-28T00:47:44.579Z,1007.75
2017-03-28T00:48:44.613Z,1007.74
2017-03-28T00:49:44.650Z,1007.77
2017-03-28T00:50:44.684Z,1007.78
2017-03-28T00:51:44.718Z,1007.8
2017-03-28T00:52:44.756Z,1007.79
2017-03-28T00:53:44.790Z,1007.75
2017-03-28T00:54:44.825Z,1007.75
2017-03-28T00:55:44.859Z,1007.74
2017-03-28T00:56:44.895Z,1007.75
2017-03-28T00:57:44.929Z,1007.78
2017-03-28T00:58:44.969Z,1007.75
2017-03-28T00:59:44.999Z,1007.75
2017-03-28T01:00:45.037Z,1007.72
2017-03-28T01:01:45.070Z,1007.74
2017-03-28T01:02:45.106Z,1007.75
2017-03-28T01:03:45.140Z,1007.74
2017-03-28T01:04:45.176Z,1007.76
2017-03-28T01:05:45.209Z,1007.75
2017-03-28T01:06:45.246Z,1007.74
2017-03-28T01:07:45.281Z,1007.74
2017-03-28T01:08:45.315Z,1007.71
2017-03-28T01:09:45.350Z,1007.7
2017-03-28T01:10:45.385Z,1007.69
2017-03-28T01:11:45.421Z,1007.68
2017-03-28T01:12:45.454Z,1007.69
2017-03-28T01:13:45.491Z,1007.64
2017-03-28T01:14:45.526Z,1007.67
2017-03-28T01:15:45.560Z,1007.63
2017-03-28T01:16:45.596Z,1007.64
2017-03-28T01:17:45.631Z,1007.6
2017-03-28T01:18:45.666Z,1007.6
2017-03-28T01:19:45.701Z,1007.59
2017-03-28T01:20:45.735Z,1007.57
2017-03-28T01:21:45.770Z,1007.57
2017-03-28T01:22:45.807Z,1007.51
2017-03-28T01:23:45.841Z,1007.54
2017-03-28T01:24:45.877Z,1007.53
2017-03-28T01:25:45.918Z,1007.54
2017-03-28T01:26:45.947Z,1007.56
2017-03-28T01:27:45.982Z,1007.51
2017-03-28T01:28:46.017Z,1007.53
2017-03-28T01:29:46.052Z,1007.53
2017-03-28T01:30:46.086Z,1007.5
2017-03-28T01:31:46.122Z,1007.47
2017-03-28T01:32:46.156Z,1007.45
2017-03-28T01:33:46.194Z,1007.46
2017-03-28T01:34:46.227Z,1007.46
2017-03-28T01:35:46.262Z,1007.46
2017-03-28T01:36:46.297Z,1007.46
2017-03-28T01:37:46.331Z,1007.42
2017-03-28T01:38:46.366Z,1007.44
2017-03-28T01:39:46.402Z,1007.44
2017-03-28T01:40:46.435Z,1007.45
2017-03-28T01:41:46.471Z,1007.43
2017-03-28T01:42:46.505Z,1007.43
2017-03-28T01:43:46.541Z,1007.4
2017-03-28T01:44:46.580Z,1007.37
2017-03-28T01:45:46.610Z,1007.36
2017-03-28T01:46:46.646Z,1007.37
2017-03-28T01:47:46.681Z,1007.35
2017-03-28T01:48:46.715Z,1007.37
2017-03-28T01:49:46.750Z,1007.38
2017-03-28T01:50:46.786Z,1007.36
2017-03-28T01:51:46.820Z,1007.35
2017-03-28T01:52:46.855Z,1007.35
2017-03-28T01:53:46.890Z,1007.37
2017-03-28T01:54:46.926Z,1007.33
2017-03-28T01:55:46.960Z,1007.34
2017-03-28T01:56:46.994Z,1007.3
2017-03-28T01:57:47.029Z,1007.33
2017-03-28T01:58:47.065Z,1007.3
2017-03-28T01:59:47.099Z,1007.32
2017-03-28T02:00:47.133Z,1007.33
2017-03-28T02:01:47.171Z,1007.33
2017-03-28T02:02:47.205Z,1007.27
2017-03-28T02:03:47.239Z,1007.3
2017-03-28T02:04:47.274Z,1007.27
2017-03-28T02:05:47.308Z,1007.27
2017-03-28T02:06:47.345Z,1007.27
2017-03-28T02:07:47.377Z,1007.32
2017-03-28T02:08:47.413Z,1007.3
2017-03-28T02:09:47.448Z,1007.29
2017-03-28T02:10:47.481Z,1007.33
2017-03-28T02:11:47.516Z,1007.34
2017-03-28T02:12:47.551Z,1007.3
2017-03-28T02:13:47.587Z,1007.32
2017-03-28T02:14:47.621Z,1007.27
2017-03-28T02:15:47.686Z,1007.29
2017-03-28T02:16:47.690Z,1007.28
2017-03-28T02:17:47.725Z,1007.3
2017-03-28T02:18:47.761Z,1007.26
2017-03-28T02:19:47.795Z,1007.31
2017-03-28T02:20:47.829Z,1007.29
2017-03-28T02:21:47.863Z,1007.27
2017-03-28T02:22:47.899Z,1007.29
2017-03-28T02:23:47.934Z,1007.3
2017-03-28T02:24:47.969Z,1007.24
2017-03-28T02:25:48.002Z,1007.27
2017-03-28T02:26:48.037Z,1007.26
2017-03-28T02:27:48.072Z,1007.24
2017-03-28T02:28:48.108Z,1007.23
2017-03-28T02:29:48.142Z,1007.26
2017-03-28T02:30:48.179Z,1007.24
2017-03-28T02:31:48.212Z,1007.2
2017-03-28T02:32:48.245Z,1007.21
2017-03-28T02:33:48.280Z,1007.2
2017-03-28T02:34:48.315Z,1007.19
2017-03-28T02:35:48.349Z,1007.17
2017-03-28T02:36:48.383Z,1007.15
2017-03-28T02:37:48.418Z,1007.18
2017-03-28T02:38:48.454Z,1007.15
2017-03-28T02:39:48.488Z,1007.14
2017-03-28T02:40:48.522Z,1007.16
2017-03-28T02:41:48.557Z,1007.17
2017-03-28T02:42:48.591Z,1007.14
2017-03-28T02:43:48.660Z,1007.11
2017-03-28T02:44:48.660Z,1007.16
2017-03-28T02:45:48.695Z,1007.15
2017-03-28T02:46:48.730Z,1007.14
2017-03-28T02:47:48.763Z,1007.11
2017-03-28T02:48:48.799Z,1007.13
2017-03-28T02:49:48.835Z,1007.08
2017-03-28T02:50:48.868Z,1007.11
2017-03-28T02:51:48.902Z,1007.09
2017-03-28T02:52:48.944Z,1007.13
2017-03-28T02:53:48.973Z,1007.09
2017-03-28T02:54:49.005Z,1007.11
2017-03-28T02:55:49.040Z,1007.09
2017-03-28T02:56:49.075Z,1007.1
2017-03-28T02:57:49.110Z,1007.09
2017-03-28T02:58:49.144Z,1007.07
2017-03-28T02:59:49.176Z,1007.08
2017-03-28T03:00:49.213Z,1007.06
2017-03-28T03:01:49.247Z,1007.07
2017-03-28T03:02:49.282Z,1007.02
2017-03-28T03:03:49.316Z,1007.05
2017-03-28T03:04:49.351Z,1007.12
2017-03-28T03:05:49.384Z,1007.1
2017-03-28T03:06:49.419Z,1007.11
2017-03-28T03:07:49.453Z,1007.1
2017-03-28T03:08:49.488Z,1007.09
2017-03-28T03:09:49.522Z,1007.07
2017-03-28T03:10:49.557Z,1007.11
2017-03-28T03:11:49.591Z,1007.08
2017-03-28T03:12:49.624Z,1007.1
2017-03-28T03:13:49.660Z,1007.11
2017-03-28T03:14:49.694Z,1007.11
2017-03-28T03:15:49.728Z,1007.11
2017-03-28T03:16:49.761Z,1007.09
2017-03-28T03:17:49.796Z,1007.11
2017-03-28T03:18:49.830Z,1007.1
2017-03-28T03:19:49.865Z,1007.12
2017-03-28T03:20:49.898Z,1007.11
2017-03-28T03:21:49.934Z,1007.14
2017-03-28T03:22:49.967Z,1007.14
2017-03-28T03:23:50.001Z,1007.11
2017-03-28T03:24:50.035Z,1007.14
2017-03-28T03:25:50.069Z,1007.15
2017-03-28T03:26:50.104Z,1007.19
2017-03-28T03:27:50.139Z,1007.23
2017-03-28T03:28:50.173Z,1007.23
2017-03-28T03:29:50.207Z,1007.26
2017-03-28T03:30:50.240Z,1007.23
2017-03-28T03:31:50.275Z,1007.24
2017-03-28T03:32:50.310Z,1007.21
2017-03-28T03:33:50.344Z,1007.21
2017-03-28T03:34:50.380Z,1007.17
2017-03-28T03:35:50.411Z,1007.18
2017-03-28T03:36:50.445Z,1007.21
2017-03-28T03:37:50.480Z,1007.22
2017-03-28T03:38:50.513Z,1007.19
2017-03-28T03:39:50.549Z,1007.21
2017-03-28T03:40:50.581Z,1007.21
2017-03-28T03:41:50.616Z,1007.18
2017-03-28T03:42:50.649Z,1007.17
2017-03-28T03:43:50.706Z,1007.18
2017-03-28T03:44:50.718Z,1007.17
2017-03-28T03:45:50.753Z,1007.18
2017-03-28T03:46:50.787Z,1007.16
2017-03-28T03:47:50.821Z,1007.16
2017-03-28T03:48:50.855Z,1007.18
2017-03-28T03:49:50.894Z,1007.17
2017-03-28T03:50:50.923Z,1007.13
2017-03-28T03:51:50.957Z,1007.16
2017-03-28T03:52:50.992Z,1007.17
2017-03-28T03:53:51.025Z,1007.18
2017-03-28T03:54:51.058Z,1007.18
2017-03-28T03:55:51.093Z,1007.18
2017-03-28T03:56:51.128Z,1007.17
2017-03-28T03:57:51.161Z,1007.16
2017-03-28T03:58:51.196Z,1007.15
2017-03-28T03:59:51.229Z,1007.11
2017-03-28T04:00:51.262Z,1007.12
2017-03-28T04:01:51.298Z,1007.12
2017-03-28T04:02:51.331Z,1007.12
2017-03-28T04:03:51.365Z,1007.11
2017-03-28T04:04:51.407Z,1007.18
2017-03-28T04:05:51.432Z,1007.14
2017-03-28T04:06:51.466Z,1007.15
2017-03-28T04:07:51.499Z,1007.15
2017-03-28T04:08:51.534Z,1007.15
2017-03-28T04:09:51.568Z,1007.14
2017-03-28T04:10:51.602Z,1007.14
2017-03-28T04:11:51.637Z,1007.14
2017-03-28T04:12:51.670Z,1007.18
2017-03-28T04:13:51.704Z,1007.17
2017-03-28T04:14:51.738Z,1007.2
2017-03-28T04:15:51.770Z,1007.18
2017-03-28T04:16:51.805Z,1007.19
2017-03-28T04:17:51.840Z,1007.18
2017-03-28T04:18:51.873Z,1007.21
2017-03-28T04:19:51.908Z,1007.25
2017-03-28T04:20:51.941Z,1007.18
2017-03-28T04:21:51.975Z,1007.22
2017-03-28T04:22:52.009Z,1007.21
2017-03-28T04:23:52.048Z,1007.24
2017-03-28T04:24:52.077Z,1007.23
2017-03-28T04:25:52.111Z,1007.25
2017-03-28T04:26:52.144Z,1007.21
2017-03-28T04:27:52.178Z,1007.24
2017-03-28T04:28:52.212Z,1007.22
2017-03-28T04:29:52.246Z,1007.25
2017-03-28T04:30:52.281Z,1007.23
2017-03-28T04:31:52.315Z,1007.21
2017-03-28T04:32:52.349Z,1007.21
2017-03-28T04:33:52.382Z,1007.24
2017-03-28T04:34:52.416Z,1007.24
2017-03-28T04:35:52.450Z,1007.22
2017-03-28T04:36:52.483Z,1007.25
2017-03-28T04:37:52.519Z,1007.21
2017-03-28T04:38:52.553Z,1007.24
2017-03-28T04:39:52.587Z,1007.21
2017-03-28T04:40:52.619Z,1007.22
2017-03-28T04:41:52.654Z,1007.24
2017-03-28T04:42:52.688Z,1007.22
2017-03-28T04:43:52.726Z,1007.23
2017-03-28T04:44:52.756Z,1007.25
2017-03-28T04:45:52.790Z,1007.26
2017-03-28T04:46:52.824Z,1007.26
2017-03-28T04:47:52.858Z,1007.29
2017-03-28T04:48:52.894Z,1007.26
2017-03-28T04:49:52.926Z,1007.28
2017-03-28T04:50:52.959Z,1007.29
2017-03-28T04:51:52.993Z,1007.33
2017-03-28T04:52:53.027Z,1007.29
2017-03-28T04:53:53.060Z,1007.32
2017-03-28T04:54:53.095Z,1007.32
2017-03-28T04:55:53.128Z,1007.33
2017-03-28T04:56:53.161Z,1007.34
2017-03-28T04:57:53.196Z,1007.35
2017-03-28T04:58:53.232Z,1007.37
2017-03-28T04:59:53.268Z,1007.4
2017-03-28T05:00:53.298Z,1007.38
2017-03-28T05:01:53.331Z,1007.41
2017-03-28T05:02:53.370Z,1007.38
2017-03-28T05:03:53.399Z,1007.44
2017-03-28T05:04:53.434Z,1007.43
2017-03-28T05:05:53.467Z,1007.45
2017-03-28T05:06:53.500Z,1007.45
2017-03-28T05:07:53.534Z,1007.41
2017-03-28T05:08:53.569Z,1007.44
2017-03-28T05:09:53.603Z,1007.43
2017-03-28T05:10:53.638Z,1007.46
2017-03-28T05:11:53.680Z,1007.45
2017-03-28T05:12:53.704Z,1007.42
2017-03-28T05:13:53.738Z,1007.45
2017-03-28T05:14:53.777Z,1007.44
2017-03-28T05:15:53.855Z,1007.47
2017-03-28T05:16:53.841Z,1007.44
2017-03-28T05:17:53.874Z,1007.43
2017-03-28T05:18:53.938Z,1007.4
2017-03-28T05:19:53.946Z,1007.4
2017-03-28T05:20:53.975Z,1007.4
2017-03-28T05:21:54.011Z,1007.44
2017-03-28T05:22:54.044Z,1007.41
2017-03-28T05:23:54.077Z,1007.4
2017-03-28T05:24:54.111Z,1007.44
2017-03-28T05:25:54.145Z,1007.44
2017-03-28T05:26:54.180Z,1007.43
2017-03-28T05:27:54.214Z,1007.44
2017-03-28T05:28:54.247Z,1007.47
2017-03-28T05:29:54.680Z,1007.44
2017-03-28T05:30:54.316Z,1007.45
2017-03-28T05:31:54.348Z,1007.43
2017-03-28T05:32:54.384Z,1007.42
2017-03-28T05:33:54.416Z,1007.43
2017-03-28T05:34:54.451Z,1007.44
2017-03-28T05:35:54.483Z,1007.42
2017-03-28T05:36:55.259Z,1007.43
2017-03-28T05:37:54.574Z,1007.44
2017-03-28T05:38:54.587Z,1007.44
2017-03-28T05:39:54.621Z,1007.43
2017-03-28T05:40:54.654Z,1007.43
2017-03-28T05:41:54.688Z,1007.43
2017-03-28T05:42:54.728Z,1007.43
2017-03-28T05:43:54.757Z,1007.43
2017-03-28T05:44:54.792Z,1007.43
2017-03-28T05:45:54.825Z,1007.46
2017-03-28T05:46:54.860Z,1007.47
2017-03-28T05:47:54.893Z,1007.45
2017-03-28T05:48:54.928Z,1007.4
2017-03-28T05:49:54.961Z,1007.42
2017-03-28T05:50:54.999Z,1007.43
2017-03-28T05:51:55.029Z,1007.42
2017-03-28T05:52:55.067Z,1007.42
2017-03-28T05:53:55.097Z,1007.42
2017-03-28T05:54:55.131Z,1007.41
2017-03-28T05:55:55.165Z,1007.43
2017-03-28T05:56:55.200Z,1007.47
2017-03-28T05:57:55.234Z,1007.46
2017-03-28T05:58:55.269Z,1007.47
2017-03-28T05:59:55.306Z,1007.5
2017-03-28T06:00:55.339Z,1007.52
2017-03-28T06:01:55.377Z,1007.48
2017-03-28T06:02:55.411Z,1007.48
2017-03-28T06:03:55.447Z,1007.45
2017-03-28T06:04:55.485Z,1007.5
2017-03-28T06:05:55.520Z,1007.52
2017-03-28T06:06:55.559Z,1007.53
2017-03-28T06:07:55.597Z,1007.53
2017-03-28T06:08:55.634Z,1007.5
2017-03-28T06:09:55.673Z,1007.53
2017-03-28T06:10:55.711Z,1007.57
2017-03-28T06:11:55.752Z,1007.57
2017-03-28T06:12:55.812Z,1007.56
2017-03-28T06:13:55.832Z,1007.61
2017-03-28T06:14:55.870Z,1007.59
2017-03-28T06:15:55.910Z,1007.62
2017-03-28T06:16:55.950Z,1007.59
2017-03-28T06:17:55.993Z,1007.64
2017-03-28T06:18:56.034Z,1007.63
2017-03-28T06:19:56.074Z,1007.61
2017-03-28T06:20:56.115Z,1007.61
2017-03-28T06:21:56.156Z,1007.62
2017-03-28T06:22:56.197Z,1007.63
2017-03-28T06:23:56.240Z,1007.66
2017-03-28T06:24:56.282Z,1007.67
2017-03-28T06:25:56.323Z,1007.64
2017-03-28T06:26:56.365Z,1007.62
2017-03-28T06:27:56.407Z,1007.64
2017-03-28T06:28:56.451Z,1007.63
2017-03-28T06:29:56.494Z,1007.59
2017-03-28T06:30:56.536Z,1007.62
2017-03-28T06:31:56.580Z,1007.61
2017-03-28T06:32:56.623Z,1007.59
2017-03-28T06:33:56.667Z,1007.61
2017-03-28T06:34:56.723Z,1007.66
2017-03-28T06:35:56.754Z,1007.66
2017-03-28T06:36:56.799Z,1007.67
2017-03-28T06:37:56.841Z,1007.66
2017-03-28T06:38:56.887Z,1007.69
2017-03-28T06:39:56.930Z,1007.71
2017-03-28T06:40:56.976Z,1007.7
2017-03-28T06:41:57.019Z,1007.75
2017-03-28T06:42:57.074Z,1007.73
2017-03-28T06:43:57.109Z,1007.77
2017-03-28T06:44:57.152Z,1007.76
2017-03-28T06:45:57.198Z,1007.78
2017-03-28T06:46:57.245Z,1007.76
2017-03-28T06:47:57.290Z,1007.79
2017-03-28T06:48:57.334Z,1007.8
2017-03-28T06:49:57.379Z,1007.78
2017-03-28T06:50:57.425Z,1007.83
2017-03-28T06:51:57.471Z,1007.83
2017-03-28T06:52:57.517Z,1007.87
2017-03-28T06:53:57.563Z,1007.87
2017-03-28T06:54:57.611Z,1007.87
2017-03-28T06:55:57.658Z,1007.88
2017-03-28T06:56:57.702Z,1007.91
2017-03-28T06:57:57.749Z,1007.93
2017-03-28T06:58:57.798Z,1007.94
2017-03-28T06:59:57.843Z,1007.91
2017-03-28T07:00:57.891Z,1007.94
2017-03-28T07:01:57.938Z,1007.93
2017-03-28T07:02:57.984Z,1007.95
2017-03-28T07:03:58.032Z,1007.96
2017-03-28T07:04:58.079Z,1007.96
2017-03-28T07:05:58.127Z,1007.94
2017-03-28T07:06:58.174Z,1007.96
2017-03-28T07:07:58.222Z,1007.99
2017-03-28T07:08:58.270Z,1007.98
2017-03-28T07:09:58.318Z,1007.96
2017-03-28T07:10:58.365Z,1008.01
2017-03-28T07:11:58.413Z,1007.98
2017-03-28T07:12:58.462Z,1007.96
2017-03-28T07:13:58.512Z,1007.99
2017-03-28T07:14:58.564Z,1007.96
2017-03-28T07:15:58.607Z,1008.02
2017-03-28T07:16:58.656Z,1008
2017-03-28T07:17:58.706Z,1008.01
2017-03-28T07:18:58.754Z,1007.98
2017-03-28T07:19:58.804Z,1008
2017-03-28T07:20:58.850Z,1008
2017-03-28T07:21:58.898Z,1007.97
2017-03-28T07:22:58.948Z,1007.97
2017-03-28T07:23:59.014Z,1007.97
2017-03-28T07:24:59.045Z,1007.97
2017-03-28T07:25:59.093Z,1007.95
2017-03-28T07:26:59.143Z,1007.93
2017-03-28T07:27:59.191Z,1007.96
2017-03-28T07:28:59.240Z,1007.93
2017-03-28T07:29:59.319Z,1007.97
2017-03-28T07:30:59.345Z,1007.97
2017-03-28T07:31:59.458Z,1007.98
2017-03-28T07:32:59.435Z,1008
2017-03-28T07:33:59.485Z,1007.94
2017-03-28T07:34:59.534Z,1007.92
2017-03-28T07:35:59.583Z,1007.95
2017-03-28T07:36:59.632Z,1008
2017-03-28T07:37:59.683Z,1007.98
2017-03-28T07:38:59.732Z,1007.99
2017-03-28T07:39:59.780Z,1007.98
2017-03-28T07:40:59.845Z,1008
2017-03-28T07:41:59.880Z,1007.99
2017-03-28T07:42:59.929Z,1008.01
2017-03-28T07:43:59.979Z,1008.02
2017-03-28T07:45:00.028Z,1007.97
2017-03-28T07:46:00.082Z,1008.03
2017-03-28T07:47:00.128Z,1008.02
2017-03-28T07:48:00.178Z,1008.01
2017-03-28T07:49:00.242Z,1007.99
2017-03-28T07:50:00.281Z,1008
2017-03-28T07:51:00.327Z,1008
2017-03-28T07:52:00.377Z,1007.94
2017-03-28T07:53:00.427Z,1007.95
2017-03-28T07:54:00.478Z,1007.96
2017-03-28T07:55:00.527Z,1007.95
2017-03-28T07:56:00.577Z,1008
2017-03-28T07:57:00.627Z,1008.01
2017-03-28T07:58:00.676Z,1008.04
2017-03-28T07:59:00.727Z,1008.06
2017-03-28T08:00:00.779Z,1008.08
2017-03-28T08:01:00.828Z,1008.07
2017-03-28T08:02:00.877Z,1008.1
2017-03-28T08:03:00.928Z,1008.1
2017-03-28T08:04:00.979Z,1008.07
2017-03-28T08:05:01.029Z,1008.08
2017-03-28T08:06:01.079Z,1008.11
2017-03-28T08:07:01.130Z,1008.09
2017-03-28T08:08:01.181Z,1008.07
2017-03-28T08:09:01.230Z,1008.07
2017-03-28T08:10:01.281Z,1008.09
2017-03-28T08:11:01.333Z,1008.09
2017-03-28T08:12:01.383Z,1008.09
2017-03-28T08:13:01.433Z,1008.12
2017-03-28T08:14:01.485Z,1008.14
2017-03-28T08:15:01.537Z,1008.15
2017-03-28T08:16:01.588Z,1008.12
2017-03-28T08:17:01.639Z,1008.08
2017-03-28T08:18:01.690Z,1008.09
2017-03-28T08:19:01.741Z,1008.08
2017-03-28T08:20:01.791Z,1008.07
2017-03-28T08:21:01.843Z,1008.06
2017-03-28T08:22:01.895Z,1008.06
2017-03-28T08:23:01.946Z,1008.06
2017-03-28T08:24:02.001Z,1008.06
2017-03-28T08:25:02.049Z,1008.04
2017-03-28T08:26:02.101Z,1008.1
2017-03-28T08:27:02.153Z,1008.08
2017-03-28T08:28:02.203Z,1008.07
2017-03-28T08:29:02.255Z,1008.09
2017-03-28T08:30:02.391Z,1008.09
2017-03-28T08:31:02.359Z,1008.09
2017-03-28T08:32:02.412Z,1008.11
2017-03-28T08:33:02.462Z,1008.15
2017-03-28T08:34:02.515Z,1008.13
2017-03-28T08:35:03.766Z,1008.14
2017-03-28T08:36:02.625Z,1008.19
2017-03-28T08:37:02.674Z,1008.17
2017-03-28T08:38:02.728Z,1008.16
2017-03-28T08:39:02.777Z,1008.16
2017-03-28T08:40:02.832Z,1008.17
2017-03-28T08:41:02.883Z,1008.14
2017-03-28T08:42:02.943Z,1008.14
2017-03-28T08:43:02.989Z,1008.1
2017-03-28T08:44:03.044Z,1008.11
2017-03-28T08:45:03.096Z,1008.11
2017-03-28T08:46:03.150Z,1008.12
2017-03-28T08:47:03.204Z,1008.14
2017-03-28T08:48:03.258Z,1008.13
2017-03-28T08:49:03.310Z,1008.13
2017-03-28T08:50:03.367Z,1008.18
2017-03-28T08:51:03.416Z,1008.13
2017-03-28T08:52:03.469Z,1008.12
2017-03-28T08:53:03.525Z,1008.13
2017-03-28T08:54:03.577Z,1008.14
2017-03-28T08:55:03.632Z,1008.12
2017-03-28T08:56:03.687Z,1008.11
2017-03-28T08:57:03.739Z,1008.12
2017-03-28T08:58:03.793Z,1008.14
2017-03-28T08:59:03.849Z,1008.14
2017-03-28T09:00:03.904Z,1008.13
2017-03-28T09:01:03.956Z,1008.14
2017-03-28T09:02:04.013Z,1008.13
2017-03-28T09:03:04.067Z,1008.11
2017-03-28T09:04:04.123Z,1008.1
2017-03-28T09:05:04.176Z,1008.08
2017-03-28T09:06:04.232Z,1008.09
2017-03-28T09:07:04.287Z,1008.08
2017-03-28T09:08:04.342Z,1008.1
2017-03-28T09:09:04.398Z,1008.07
2017-03-28T09:10:04.452Z,1008.06
2017-03-28T09:11:04.508Z,1008.07
2017-03-28T09:12:04.563Z,1008.09
2017-03-28T09:13:04.618Z,1008.04
2017-03-28T09:14:04.678Z,1008.03
2017-03-28T09:15:04.731Z,1008.04
2017-03-28T09:16:04.788Z,1008.01
2017-03-28T09:17:04.844Z,1008.1
2017-03-28T09:18:04.900Z,1008.05
2017-03-28T09:19:04.954Z,1008.03
2017-03-28T09:20:05.009Z,1008.07
2017-03-28T09:21:05.067Z,1008.07
2017-03-28T09:22:05.129Z,1008.06
2017-03-28T09:23:05.180Z,1008.06
2017-03-28T09:24:05.236Z,1008.14
2017-03-28T09:25:05.293Z,1008.1
2017-03-28T09:26:05.348Z,1008.1
2017-03-28T09:27:05.406Z,1008.08
2017-03-28T09:28:05.463Z,1008.1
2017-03-28T09:29:05.518Z,1008.1
2017-03-28T09:30:05.575Z,1008.17
2017-03-28T09:31:05.632Z,1008.12
2017-03-28T09:32:05.695Z,1008.08
2017-03-28T09:33:05.746Z,1008.12
2017-03-28T09:34:05.804Z,1008.06
2017-03-28T09:35:05.860Z,1008.12
2017-03-28T09:36:05.917Z,1008.1
2017-03-28T09:37:05.973Z,1008.11
2017-03-28T09:38:06.031Z,1008.11
2017-03-28T09:39:06.089Z,1008.12
2017-03-28T09:40:06.147Z,1008.11
2017-03-28T09:41:06.204Z,1008.14
2017-03-28T09:42:06.261Z,1008.11
2017-03-28T09:43:06.318Z,1008.11
2017-03-28T09:44:06.374Z,1008.08
2017-03-28T09:45:06.431Z,1008.08
2017-03-28T09:46:06.489Z,1008.11
2017-03-28T09:47:06.547Z,1008.1
2017-03-28T09:48:06.604Z,1008.09
2017-03-28T09:49:06.661Z,1008.12
2017-03-28T09:50:06.719Z,1008.14
2017-03-28T09:51:06.778Z,1008.05
2017-03-28T09:52:06.836Z,1008.06
2017-03-28T09:53:06.893Z,1008.06
2017-03-28T09:54:06.954Z,1008.05
2017-03-28T09:55:07.009Z,1008.11
2017-03-28T09:56:07.067Z,1008.12
2017-03-28T09:57:07.126Z,1008.05
2017-03-28T09:58:07.188Z,1008.04
2017-03-28T09:59:07.333Z,1008.01
2017-03-28T10:00:07.300Z,1008.09
2017-03-28T10:01:07.367Z,1008.08
2017-03-28T10:02:07.498Z,1008.06
2017-03-28T10:03:07.477Z,1008.07
2017-03-28T10:04:07.535Z,1008.08
2017-03-28T10:05:07.602Z,1008.07
2017-03-28T10:06:07.715Z,1008.02
2017-03-28T10:07:07.711Z,1008.01
2017-03-28T10:08:07.770Z,1008.03
2017-03-28T10:09:07.852Z,1007.99
2017-03-28T10:10:07.886Z,1008
2017-03-28T10:11:07.947Z,1008
2017-03-28T10:12:08.007Z,1008
2017-03-28T10:13:08.099Z,1008
2017-03-28T10:14:08.158Z,1007.94
2017-03-28T10:15:08.180Z,1007.96
2017-03-28T10:16:08.264Z,1007.94
2017-03-28T10:17:08.298Z,1007.92
2017-03-28T10:18:08.358Z,1007.91
2017-03-28T10:19:08.439Z,1007.86
2017-03-28T10:20:08.500Z,1007.81
2017-03-28T10:21:08.570Z,1007.86
2017-03-28T10:22:08.595Z,1007.87
2017-03-28T10:23:08.653Z,1007.84
2017-03-28T10:24:08.713Z,1007.86
2017-03-28T10:25:08.831Z,1007.82
2017-03-28T10:26:08.860Z,1007.86
2017-03-28T10:27:08.969Z,1007.85
2017-03-28T10:28:08.984Z,1007.81
2017-03-28T10:29:09.008Z,1007.81
2017-03-28T10:30:09.068Z,1007.8
2017-03-28T10:31:09.153Z,1007.76
2017-03-28T10:32:09.191Z,1007.74
2017-03-28T10:33:09.278Z,1007.79
2017-03-28T10:34:09.360Z,1007.76
2017-03-28T10:35:09.365Z,1007.79
2017-03-28T10:36:09.425Z,1007.75
2017-03-28T10:37:09.485Z,1007.77
2017-03-28T10:38:09.544Z,1007.73
2017-03-28T10:39:09.656Z,1007.72
2017-03-28T10:40:09.669Z,1007.76
2017-03-28T10:41:09.722Z,1007.74
2017-03-28T10:42:09.786Z,1007.78
2017-03-28T10:43:09.839Z,1007.73
2017-03-28T10:44:09.899Z,1007.73
2017-03-28T10:45:09.967Z,1007.72
2017-03-28T10:46:10.019Z,1007.71
2017-03-28T10:47:10.078Z,1007.7
2017-03-28T10:48:10.137Z,1007.69
2017-03-28T10:49:10.196Z,1007.69
2017-03-28T10:50:10.256Z,1007.68
2017-03-28T10:51:10.313Z,1007.68
2017-03-28T10:52:10.517Z,1007.68
2017-03-28T10:53:10.435Z,1007.66
2017-03-28T10:54:10.495Z,1007.63
2017-03-28T10:55:10.553Z,1007.61
2017-03-28T10:56:10.615Z,1007.6
2017-03-28T10:57:10.673Z,1007.6
2017-03-28T10:58:10.732Z,1007.58
2017-03-28T10:59:10.790Z,1007.6
2017-03-28T11:00:10.857Z,1007.57
2017-03-28T11:01:10.913Z,1007.55
2017-03-28T11:02:10.967Z,1007.53
2017-03-28T11:03:11.087Z,1007.54
2017-03-28T11:04:11.087Z,1007.52
2017-03-28T11:05:11.146Z,1007.48
2017-03-28T11:06:11.203Z,1007.48
2017-03-28T11:07:11.261Z,1007.49
2017-03-28T11:08:11.318Z,1007.49
2017-03-28T11:09:11.377Z,1007.48
2017-03-28T11:10:11.437Z,1007.47
2017-03-28T11:11:11.493Z,1007.44
2017-03-28T11:12:11.550Z,1007.4
2017-03-28T11:13:11.609Z,1007.41
2017-03-28T11:14:11.665Z,1007.38
2017-03-28T11:15:11.723Z,1007.34
2017-03-28T11:16:11.779Z,1007.39
2017-03-28T11:17:11.843Z,1007.41
2017-03-28T11:18:11.892Z,1007.38
2017-03-28T11:19:11.948Z,1007.37
2017-03-28T11:20:12.004Z,1007.33
2017-03-28T11:21:12.060Z,1007.33
2017-03-28T11:22:12.116Z,1007.3
2017-03-28T11:23:12.173Z,1007.24
2017-03-28T11:24:12.229Z,1007.23
2017-03-28T11:25:12.283Z,1007.25
2017-03-28T11:26:12.336Z,1007.26
2017-03-28T11:27:12.389Z,1007.25
2017-03-28T11:28:12.447Z,1007.24
2017-03-28T11:29:12.499Z,1007.21
2017-03-28T11:30:12.553Z,1007.21
2017-03-28T11:31:12.605Z,1007.19
2017-03-28T11:32:12.659Z,1007.19
2017-03-28T11:33:12.714Z,1007.18
2017-03-28T11:34:12.764Z,1007.13
2017-03-28T11:35:12.817Z,1007.1
2017-03-28T11:36:12.871Z,1007.07
2017-03-28T11:37:12.921Z,1007.08
2017-03-28T11:38:12.974Z,1007.05
2017-03-28T11:39:13.026Z,1007.04
2017-03-28T11:40:13.075Z,1007.01
2017-03-28T11:41:13.128Z,1007.04
2017-03-28T11:42:13.177Z,1007.02
2017-03-28T11:43:13.229Z,1006.98
2017-03-28T11:44:13.280Z,1006.98
2017-03-28T11:45:13.346Z,1006.94
2017-03-28T11:46:13.379Z,1006.93
2017-03-28T11:47:13.431Z,1006.95
2017-03-28T11:48:13.482Z,1006.93
2017-03-28T11:49:13.529Z,1006.94
2017-03-28T11:50:13.579Z,1006.93
2017-03-28T11:51:13.627Z,1006.9
2017-03-28T11:52:13.676Z,1006.9
2017-03-28T11:53:13.728Z,1006.89
2017-03-28T11:54:13.774Z,1006.87
2017-03-28T11:55:13.822Z,1006.81
2017-03-28T11:56:13.870Z,1006.81
2017-03-28T11:57:13.919Z,1006.81
2017-03-28T11:58:13.967Z,1006.77
2017-03-28T11:59:14.017Z,1006.74
2017-03-28T12:00:14.063Z,1006.71
2017-03-28T12:01:14.111Z,1006.76
2017-03-28T12:02:14.158Z,1006.73
2017-03-28T12:03:14.207Z,1006.74
2017-03-28T12:04:14.253Z,1006.71
2017-03-28T12:05:14.302Z,1006.69
2017-03-28T12:06:14.350Z,1006.65
2017-03-28T12:07:14.396Z,1006.67
2017-03-28T12:08:14.442Z,1006.64
2017-03-28T12:09:14.489Z,1006.61
2017-03-28T12:10:14.537Z,1006.6